sensor_id;sensor_type;location;lat;lon;timestamp;temperature;humidity
58566;DHT22;47788;46.172;-1.158;2022-09-25T00:00:53;15.00;99.90
58566;DHT22;47788;46.172;-1.158;2022-09-25T00:03:20;14.90;99.90
58566;DHT22;47788;46.172;-1.158;2022-09-25T00:05:47;14.90;99.90
58566;DHT22;47788;46.172;-1.158;2022-09-25T00:08:14;14.90;99.90
58566;DHT22;47788;46.172;-1.158;2022-09-25T00:10:41;14.80;99.90
58566;DHT22;47788;46.172;-1.158;2022-09-25T00:13:07;14.80;99.90
58566;DHT22;47788;46.172;-1.158;2022-09-25T00:15:33;14.70;99.90
58566;DHT22;47788;46.172;-1.158;2022-09-25T00:17:59;14.70;99.90
58566;DHT22;47788;46.172;-1.158;2022-09-25T00:20:24;14.70;99.90
58566;DHT22;47788;46.172;-1.158;2022-09-25T00:22:50;14.60;99.90
58566;DHT22;47788;46.172;-1.158;2022-09-25T00:25:17;14.60;99.90
58566;DHT22;47788;46.172;-1.158;2022-09-25T00:27:45;14.50;99.90
58566;DHT22;47788;46.172;-1.158;2022-09-25T00:30:12;14.50;99.90
58566;DHT22;47788;46.172;-1.158;2022-09-25T00:32:38;14.50;99.90
58566;DHT22;47788;46.172;-1.158;2022-09-25T00:35:05;14.50;99.90
58566;DHT22;47788;46.172;-1.158;2022-09-25T00:37:34;14.40;99.90
58566;DHT22;47788;46.172;-1.158;2022-09-25T00:40:01;14.40;99.90
58566;DHT22;47788;46.172;-1.158;2022-09-25T00:42:27;14.40;99.90
58566;DHT22;47788;46.172;-1.158;2022-09-25T00:44:57;14.40;99.90
58566;DHT22;47788;46.172;-1.158;2022-09-25T00:50:25;14.30;99.90
58566;DHT22;47788;46.172;-1.158;2022-09-25T00:52:52;14.30;99.90
58566;DHT22;47788;46.172;-1.158;2022-09-25T00:55:20;14.30;99.90
58566;DHT22;47788;46.172;-1.158;2022-09-25T00:57:51;14.30;99.90
58566;DHT22;47788;46.172;-1.158;2022-09-25T01:00:18;14.30;99.90
58566;DHT22;47788;46.172;-1.158;2022-09-25T01:02:48;14.30;99.90
58566;DHT22;47788;46.172;-1.158;2022-09-25T01:05:20;14.30;99.90
58566;DHT22;47788;46.172;-1.158;2022-09-25T01:07:48;14.30;99.90
58566;DHT22;47788;46.172;-1.158;2022-09-25T01:10:15;14.30;99.90
58566;DHT22;47788;46.172;-1.158;2022-09-25T01:12:44;14.30;99.90
58566;DHT22;47788;46.172;-1.158;2022-09-25T01:15:12;14.30;99.90
58566;DHT22;47788;46.172;-1.158;2022-09-25T01:23:16;14.30;99.90
58566;DHT22;47788;46.172;-1.158;2022-09-25T01:28:49;14.20;99.90
58566;DHT22;47788;46.172;-1.158;2022-09-25T01:31:26;14.20;99.90
58566;DHT22;47788;46.172;-1.158;2022-09-25T01:33:58;14.20;99.90
58566;DHT22;47788;46.172;-1.158;2022-09-25T01:36:28;14.10;99.90
58566;DHT22;47788;46.172;-1.158;2022-09-25T01:39:05;14.10;99.90
58566;DHT22;47788;46.172;-1.158;2022-09-25T01:41:56;14.10;99.90
58566;DHT22;47788;46.172;-1.158;2022-09-25T01:44:40;14.00;99.90
58566;DHT22;47788;46.172;-1.158;2022-09-25T01:47:14;14.00;99.90
58566;DHT22;47788;46.172;-1.158;2022-09-25T01:49:50;14.00;99.90
58566;DHT22;47788;46.172;-1.158;2022-09-25T01:52:21;14.00;99.90
58566;DHT22;47788;46.172;-1.158;2022-09-25T01:54:54;13.90;99.90
58566;DHT22;47788;46.172;-1.158;2022-09-25T01:57:29;13.90;99.90
58566;DHT22;47788;46.172;-1.158;2022-09-25T02:00:17;13.90;99.90
58566;DHT22;47788;46.172;-1.158;2022-09-25T02:03:06;13.90;99.90
58566;DHT22;47788;46.172;-1.158;2022-09-25T02:05:51;13.80;99.90
58566;DHT22;47788;46.172;-1.158;2022-09-25T02:08:24;13.80;99.90
58566;DHT22;47788;46.172;-1.158;2022-09-25T02:10:56;13.80;99.90
58566;DHT22;47788;46.172;-1.158;2022-09-25T02:13:28;13.80;99.90
58566;DHT22;47788;46.172;-1.158;2022-09-25T02:16:03;13.70;99.90
58566;DHT22;47788;46.172;-1.158;2022-09-25T02:18:31;13.70;99.90
58566;DHT22;47788;46.172;-1.158;2022-09-25T02:26:35;13.70;99.90
58566;DHT22;47788;46.172;-1.158;2022-09-25T02:29:03;13.70;99.90
58566;DHT22;47788;46.172;-1.158;2022-09-25T02:31:35;13.60;99.90
58566;DHT22;47788;46.172;-1.158;2022-09-25T02:34:01;13.70;99.90
58566;DHT22;47788;46.172;-1.158;2022-09-25T02:36:28;13.60;99.90
58566;DHT22;47788;46.172;-1.158;2022-09-25T02:38:54;13.60;99.90
58566;DHT22;47788;46.172;-1.158;2022-09-25T02:50:03;13.50;99.90
58566;DHT22;47788;46.172;-1.158;2022-09-25T02:55:44;13.40;99.90
58566;DHT22;47788;46.172;-1.158;2022-09-25T02:58:23;13.40;99.90
58566;DHT22;47788;46.172;-1.158;2022-09-25T03:00:52;13.40;99.90
58566;DHT22;47788;46.172;-1.158;2022-09-25T03:03:22;13.40;99.90
58566;DHT22;47788;46.172;-1.158;2022-09-25T03:05:50;13.40;99.90
58566;DHT22;47788;46.172;-1.158;2022-09-25T03:08:17;13.40;99.90
58566;DHT22;47788;46.172;-1.158;2022-09-25T03:11:04;13.40;99.90
58566;DHT22;47788;46.172;-1.158;2022-09-25T03:13:31;13.40;99.90
58566;DHT22;47788;46.172;-1.158;2022-09-25T03:16:19;13.40;99.90
58566;DHT22;47788;46.172;-1.158;2022-09-25T03:18:49;13.40;99.90
58566;DHT22;47788;46.172;-1.158;2022-09-25T03:21:16;13.40;99.90
58566;DHT22;47788;46.172;-1.158;2022-09-25T03:23:41;13.30;99.90
58566;DHT22;47788;46.172;-1.158;2022-09-25T03:26:07;13.30;99.90
58566;DHT22;47788;46.172;-1.158;2022-09-25T03:28:33;13.30;99.90
58566;DHT22;47788;46.172;-1.158;2022-09-25T03:31:04;13.30;99.90
58566;DHT22;47788;46.172;-1.158;2022-09-25T03:33:35;13.30;99.90
58566;DHT22;47788;46.172;-1.158;2022-09-25T03:36:16;13.20;99.90
58566;DHT22;47788;46.172;-1.158;2022-09-25T03:38:44;13.20;99.90
58566;DHT22;47788;46.172;-1.158;2022-09-25T03:41:12;13.20;99.90
58566;DHT22;47788;46.172;-1.158;2022-09-25T03:43:39;13.20;99.90
58566;DHT22;47788;46.172;-1.158;2022-09-25T03:46:08;13.10;99.90
58566;DHT22;47788;46.172;-1.158;2022-09-25T03:48:34;13.10;99.90
58566;DHT22;47788;46.172;-1.158;2022-09-25T03:51:01;13.10;99.90
58566;DHT22;47788;46.172;-1.158;2022-09-25T03:53:28;13.00;99.90
58566;DHT22;47788;46.172;-1.158;2022-09-25T03:56:01;13.00;99.90
58566;DHT22;47788;46.172;-1.158;2022-09-25T03:58:27;12.90;99.90
58566;DHT22;47788;46.172;-1.158;2022-09-25T04:00:54;13.00;99.90
58566;DHT22;47788;46.172;-1.158;2022-09-25T04:03:24;13.00;99.90
58566;DHT22;47788;46.172;-1.158;2022-09-25T04:05:53;13.00;99.90
58566;DHT22;47788;46.172;-1.158;2022-09-25T04:08:20;12.90;99.90
58566;DHT22;47788;46.172;-1.158;2022-09-25T04:10:46;12.90;99.90
58566;DHT22;47788;46.172;-1.158;2022-09-25T04:13:12;12.90;99.90
58566;DHT22;47788;46.172;-1.158;2022-09-25T04:15:41;12.90;99.90
58566;DHT22;47788;46.172;-1.158;2022-09-25T04:18:07;12.90;99.90
58566;DHT22;47788;46.172;-1.158;2022-09-25T04:20:34;12.90;99.90
58566;DHT22;47788;46.172;-1.158;2022-09-25T04:23:00;12.90;99.90
58566;DHT22;47788;46.172;-1.158;2022-09-25T04:25:26;12.90;99.90
58566;DHT22;47788;46.172;-1.158;2022-09-25T04:27:53;12.90;99.90
58566;DHT22;47788;46.172;-1.158;2022-09-25T04:30:24;12.90;99.90
58566;DHT22;47788;46.172;-1.158;2022-09-25T04:32:50;12.90;99.90
58566;DHT22;47788;46.172;-1.158;2022-09-25T04:35:34;12.90;99.90
58566;DHT22;47788;46.172;-1.158;2022-09-25T04:38:00;12.90;99.90
58566;DHT22;47788;46.172;-1.158;2022-09-25T04:40:26;12.90;99.90
58566;DHT22;47788;46.172;-1.158;2022-09-25T04:42:59;12.90;99.90
58566;DHT22;47788;46.172;-1.158;2022-09-25T04:45:26;12.90;99.90
58566;DHT22;47788;46.172;-1.158;2022-09-25T04:47:53;12.90;99.90
58566;DHT22;47788;46.172;-1.158;2022-09-25T04:50:20;12.90;99.90
58566;DHT22;47788;46.172;-1.158;2022-09-25T04:52:46;12.80;99.90
58566;DHT22;47788;46.172;-1.158;2022-09-25T04:55:13;12.80;99.90
58566;DHT22;47788;46.172;-1.158;2022-09-25T04:57:38;12.80;99.90
58566;DHT22;47788;46.172;-1.158;2022-09-25T05:00:05;12.70;99.90
58566;DHT22;47788;46.172;-1.158;2022-09-25T05:02:31;12.70;99.90
58566;DHT22;47788;46.172;-1.158;2022-09-25T05:04:57;12.70;99.90
58566;DHT22;47788;46.172;-1.158;2022-09-25T05:07:22;12.70;99.90
58566;DHT22;47788;46.172;-1.158;2022-09-25T05:09:48;12.70;99.90
58566;DHT22;47788;46.172;-1.158;2022-09-25T05:12:14;12.70;99.90
58566;DHT22;47788;46.172;-1.158;2022-09-25T05:14:40;12.70;99.90
58566;DHT22;47788;46.172;-1.158;2022-09-25T05:17:07;12.80;99.90
58566;DHT22;47788;46.172;-1.158;2022-09-25T05:19:33;12.80;99.90
58566;DHT22;47788;46.172;-1.158;2022-09-25T05:21:59;12.80;99.90
58566;DHT22;47788;46.172;-1.158;2022-09-25T05:24:25;12.90;99.90
58566;DHT22;47788;46.172;-1.158;2022-09-25T05:26:50;12.90;99.90
58566;DHT22;47788;46.172;-1.158;2022-09-25T05:29:16;13.00;99.90
58566;DHT22;47788;46.172;-1.158;2022-09-25T05:31:42;13.00;99.90
58566;DHT22;47788;46.172;-1.158;2022-09-25T05:34:11;13.00;99.90
58566;DHT22;47788;46.172;-1.158;2022-09-25T05:36:37;13.10;99.90
58566;DHT22;47788;46.172;-1.158;2022-09-25T05:39:03;13.20;99.90
58566;DHT22;47788;46.172;-1.158;2022-09-25T05:41:28;13.30;99.90
58566;DHT22;47788;46.172;-1.158;2022-09-25T05:43:55;13.40;99.90
58566;DHT22;47788;46.172;-1.158;2022-09-25T05:46:22;13.50;99.90
58566;DHT22;47788;46.172;-1.158;2022-09-25T05:48:48;13.50;99.90
58566;DHT22;47788;46.172;-1.158;2022-09-25T05:51:13;13.60;99.90
58566;DHT22;47788;46.172;-1.158;2022-09-25T05:53:40;13.70;99.90
58566;DHT22;47788;46.172;-1.158;2022-09-25T05:56:05;13.70;99.90
58566;DHT22;47788;46.172;-1.158;2022-09-25T05:58:33;13.80;99.90
58566;DHT22;47788;46.172;-1.158;2022-09-25T06:01:00;13.80;99.90
58566;DHT22;47788;46.172;-1.158;2022-09-25T06:03:28;13.90;99.90
58566;DHT22;47788;46.172;-1.158;2022-09-25T06:05:55;14.00;99.90
58566;DHT22;47788;46.172;-1.158;2022-09-25T06:08:21;14.00;99.90
58566;DHT22;47788;46.172;-1.158;2022-09-25T06:10:54;14.00;99.90
58566;DHT22;47788;46.172;-1.158;2022-09-25T06:13:21;14.00;99.90
58566;DHT22;47788;46.172;-1.158;2022-09-25T06:15:47;14.00;99.90
58566;DHT22;47788;46.172;-1.158;2022-09-25T06:18:17;14.10;99.90
58566;DHT22;47788;46.172;-1.158;2022-09-25T06:20:43;14.10;99.90
58566;DHT22;47788;46.172;-1.158;2022-09-25T06:23:09;14.10;99.90
58566;DHT22;47788;46.172;-1.158;2022-09-25T06:25:34;14.20;99.90
58566;DHT22;47788;46.172;-1.158;2022-09-25T06:28:01;14.10;99.90
58566;DHT22;47788;46.172;-1.158;2022-09-25T06:30:28;14.20;99.90
58566;DHT22;47788;46.172;-1.158;2022-09-25T06:35:27;14.20;99.90
58566;DHT22;47788;46.172;-1.158;2022-09-25T06:37:59;14.20;99.90
58566;DHT22;47788;46.172;-1.158;2022-09-25T06:40:27;14.30;99.90
58566;DHT22;47788;46.172;-1.158;2022-09-25T06:43:00;14.30;99.90
58566;DHT22;47788;46.172;-1.158;2022-09-25T06:45:28;14.40;99.90
58566;DHT22;47788;46.172;-1.158;2022-09-25T06:47:59;14.40;99.90
58566;DHT22;47788;46.172;-1.158;2022-09-25T06:50:25;14.40;99.90
58566;DHT22;47788;46.172;-1.158;2022-09-25T06:52:59;14.40;99.90
58566;DHT22;47788;46.172;-1.158;2022-09-25T06:55:25;14.40;99.90
58566;DHT22;47788;46.172;-1.158;2022-09-25T06:57:51;14.50;99.90
58566;DHT22;47788;46.172;-1.158;2022-09-25T07:00:17;14.60;99.90
58566;DHT22;47788;46.172;-1.158;2022-09-25T07:02:43;14.70;99.90
58566;DHT22;47788;46.172;-1.158;2022-09-25T07:05:27;14.70;99.90
58566;DHT22;47788;46.172;-1.158;2022-09-25T07:07:53;14.80;99.90
58566;DHT22;47788;46.172;-1.158;2022-09-25T07:10:20;14.80;99.90
58566;DHT22;47788;46.172;-1.158;2022-09-25T07:12:46;14.80;99.90
58566;DHT22;47788;46.172;-1.158;2022-09-25T07:15:12;14.80;99.90
58566;DHT22;47788;46.172;-1.158;2022-09-25T07:17:42;14.90;99.90
58566;DHT22;47788;46.172;-1.158;2022-09-25T07:20:08;14.90;99.90
58566;DHT22;47788;46.172;-1.158;2022-09-25T07:22:37;14.90;99.90
58566;DHT22;47788;46.172;-1.158;2022-09-25T07:25:03;15.00;99.90
58566;DHT22;47788;46.172;-1.158;2022-09-25T07:27:29;15.00;99.90
58566;DHT22;47788;46.172;-1.158;2022-09-25T07:29:55;15.10;99.90
58566;DHT22;47788;46.172;-1.158;2022-09-25T07:32:21;15.10;99.90
58566;DHT22;47788;46.172;-1.158;2022-09-25T07:34:46;15.20;99.90
58566;DHT22;47788;46.172;-1.158;2022-09-25T07:37:18;15.30;99.90
58566;DHT22;47788;46.172;-1.158;2022-09-25T07:39:44;15.40;99.90
58566;DHT22;47788;46.172;-1.158;2022-09-25T07:42:09;15.40;99.90
58566;DHT22;47788;46.172;-1.158;2022-09-25T07:44:35;15.50;99.90
58566;DHT22;47788;46.172;-1.158;2022-09-25T07:47:01;15.50;99.90
58566;DHT22;47788;46.172;-1.158;2022-09-25T07:49:31;15.50;99.90
58566;DHT22;47788;46.172;-1.158;2022-09-25T07:51:57;15.60;99.90
58566;DHT22;47788;46.172;-1.158;2022-09-25T07:54:23;15.80;99.90
58566;DHT22;47788;46.172;-1.158;2022-09-25T07:56:50;15.90;99.90
58566;DHT22;47788;46.172;-1.158;2022-09-25T07:59:15;16.00;99.90
58566;DHT22;47788;46.172;-1.158;2022-09-25T08:01:41;16.00;99.90
58566;DHT22;47788;46.172;-1.158;2022-09-25T08:04:07;16.00;99.90
58566;DHT22;47788;46.172;-1.158;2022-09-25T08:06:36;16.10;99.90
58566;DHT22;47788;46.172;-1.158;2022-09-25T08:09:03;16.20;99.90
58566;DHT22;47788;46.172;-1.158;2022-09-25T08:11:28;16.30;99.90
58566;DHT22;47788;46.172;-1.158;2022-09-25T08:13:55;16.40;99.90
58566;DHT22;47788;46.172;-1.158;2022-09-25T08:16:21;16.40;99.90
58566;DHT22;47788;46.172;-1.158;2022-09-25T08:18:48;16.40;99.90
58566;DHT22;47788;46.172;-1.158;2022-09-25T08:21:16;16.50;99.90
58566;DHT22;47788;46.172;-1.158;2022-09-25T08:23:44;16.60;99.90
58566;DHT22;47788;46.172;-1.158;2022-09-25T08:26:12;16.70;99.90
58566;DHT22;47788;46.172;-1.158;2022-09-25T08:28:38;16.70;99.90
58566;DHT22;47788;46.172;-1.158;2022-09-25T08:31:04;16.60;99.90
58566;DHT22;47788;46.172;-1.158;2022-09-25T08:33:30;16.70;99.90
58566;DHT22;47788;46.172;-1.158;2022-09-25T08:36:01;16.70;99.90
58566;DHT22;47788;46.172;-1.158;2022-09-25T08:38:27;16.80;99.90
58566;DHT22;47788;46.172;-1.158;2022-09-25T08:41:23;16.90;99.90
58566;DHT22;47788;46.172;-1.158;2022-09-25T08:46:30;17.10;99.90
58566;DHT22;47788;46.172;-1.158;2022-09-25T08:49:18;17.20;99.90
58566;DHT22;47788;46.172;-1.158;2022-09-25T08:51:48;17.30;99.90
58566;DHT22;47788;46.172;-1.158;2022-09-25T08:54:23;17.50;99.90
58566;DHT22;47788;46.172;-1.158;2022-09-25T08:56:58;17.70;99.90
58566;DHT22;47788;46.172;-1.158;2022-09-25T08:59:33;17.90;99.90
58566;DHT22;47788;46.172;-1.158;2022-09-25T09:04:44;18.10;99.90
58566;DHT22;47788;46.172;-1.158;2022-09-25T09:07:45;18.20;99.90
58566;DHT22;47788;46.172;-1.158;2022-09-25T09:10:23;18.40;99.90
58566;DHT22;47788;46.172;-1.158;2022-09-25T09:13:42;18.30;99.90
58566;DHT22;47788;46.172;-1.158;2022-09-25T09:16:08;18.20;99.90
58566;DHT22;47788;46.172;-1.158;2022-09-25T09:18:38;18.00;99.90
58566;DHT22;47788;46.172;-1.158;2022-09-25T09:24:04;18.00;99.90
58566;DHT22;47788;46.172;-1.158;2022-09-25T09:45:30;18.40;99.90
58566;DHT22;47788;46.172;-1.158;2022-09-25T09:56:18;19.00;99.90
58566;DHT22;47788;46.172;-1.158;2022-09-25T09:58:55;19.10;99.90
58566;DHT22;47788;46.172;-1.158;2022-09-25T10:01:28;19.30;99.90
58566;DHT22;47788;46.172;-1.158;2022-09-25T10:06:41;19.70;99.90
58566;DHT22;47788;46.172;-1.158;2022-09-25T10:09:13;19.80;99.90
58566;DHT22;47788;46.172;-1.158;2022-09-25T10:11:39;19.90;99.90
58566;DHT22;47788;46.172;-1.158;2022-09-25T10:14:13;19.90;99.90
58566;DHT22;47788;46.172;-1.158;2022-09-25T10:16:40;20.00;99.90
58566;DHT22;47788;46.172;-1.158;2022-09-25T10:19:18;19.90;99.90
58566;DHT22;47788;46.172;-1.158;2022-09-25T10:21:56;19.80;99.90
58566;DHT22;47788;46.172;-1.158;2022-09-25T10:32:47;19.50;99.90
58566;DHT22;47788;46.172;-1.158;2022-09-25T10:35:20;19.70;99.90
58566;DHT22;47788;46.172;-1.158;2022-09-25T10:37:55;19.80;99.90
58566;DHT22;47788;46.172;-1.158;2022-09-25T10:40:26;19.80;99.90
58566;DHT22;47788;46.172;-1.158;2022-09-25T10:43:24;19.70;99.90
58566;DHT22;47788;46.172;-1.158;2022-09-25T10:48:38;19.50;99.90
58566;DHT22;47788;46.172;-1.158;2022-09-25T10:51:23;19.30;99.90
58566;DHT22;47788;46.172;-1.158;2022-09-25T10:54:09;19.20;99.90
58566;DHT22;47788;46.172;-1.158;2022-09-25T10:56:35;19.50;99.90
58566;DHT22;47788;46.172;-1.158;2022-09-25T10:59:09;19.80;99.90
58566;DHT22;47788;46.172;-1.158;2022-09-25T11:01:40;19.70;99.90
58566;DHT22;47788;46.172;-1.158;2022-09-25T11:04:28;19.60;99.90
58566;DHT22;47788;46.172;-1.158;2022-09-25T11:06:58;19.70;99.90
58566;DHT22;47788;46.172;-1.158;2022-09-25T11:09:29;19.90;99.90
58566;DHT22;47788;46.172;-1.158;2022-09-25T11:12:21;20.20;99.90
58566;DHT22;47788;46.172;-1.158;2022-09-25T11:15:00;20.50;99.90
58566;DHT22;47788;46.172;-1.158;2022-09-25T11:22:51;21.20;99.90
58566;DHT22;47788;46.172;-1.158;2022-09-25T11:25:31;21.40;99.90
58566;DHT22;47788;46.172;-1.158;2022-09-25T11:28:12;21.50;99.90
58566;DHT22;47788;46.172;-1.158;2022-09-25T11:36:44;21.80;99.90
58566;DHT22;47788;46.172;-1.158;2022-09-25T11:39:50;22.00;99.90
58566;DHT22;47788;46.172;-1.158;2022-09-25T11:42:40;21.90;99.90
58566;DHT22;47788;46.172;-1.158;2022-09-25T11:45:38;21.70;99.90
58566;DHT22;47788;46.172;-1.158;2022-09-25T11:48:32;21.50;99.90
58566;DHT22;47788;46.172;-1.158;2022-09-25T11:51:25;21.50;99.90
58566;DHT22;47788;46.172;-1.158;2022-09-25T11:57:33;21.80;99.90
58566;DHT22;47788;46.172;-1.158;2022-09-25T12:00:06;21.70;99.90
58566;DHT22;47788;46.172;-1.158;2022-09-25T12:07:42;21.90;99.90
58566;DHT22;47788;46.172;-1.158;2022-09-25T12:21:14;22.50;99.10
58566;DHT22;47788;46.172;-1.158;2022-09-25T12:26:55;23.00;98.80
58566;DHT22;47788;46.172;-1.158;2022-09-25T12:29:32;23.20;98.00
58566;DHT22;47788;46.172;-1.158;2022-09-25T12:38:15;23.60;97.60
58566;DHT22;47788;46.172;-1.158;2022-09-25T12:43:43;23.60;97.20
58566;DHT22;47788;46.172;-1.158;2022-09-25T12:46:28;23.40;97.40
58566;DHT22;47788;46.172;-1.158;2022-09-25T12:49:11;23.20;97.20
58566;DHT22;47788;46.172;-1.158;2022-09-25T12:51:47;22.90;97.30
58566;DHT22;47788;46.172;-1.158;2022-09-25T12:54:35;22.90;97.70
58566;DHT22;47788;46.172;-1.158;2022-09-25T13:05:12;24.40;96.80
58566;DHT22;47788;46.172;-1.158;2022-09-25T13:13:12;24.30;95.10
58566;DHT22;47788;46.172;-1.158;2022-09-25T13:15:47;24.30;95.40
58566;DHT22;47788;46.172;-1.158;2022-09-25T13:18:20;24.10;95.60
58566;DHT22;47788;46.172;-1.158;2022-09-25T13:20:56;23.70;95.80
58566;DHT22;47788;46.172;-1.158;2022-09-25T13:23:39;23.30;96.30
58566;DHT22;47788;46.172;-1.158;2022-09-25T13:29:13;22.40;97.80
58566;DHT22;47788;46.172;-1.158;2022-09-25T13:31:40;22.00;98.50
58566;DHT22;47788;46.172;-1.158;2022-09-25T13:34:13;21.60;99.50
58566;DHT22;47788;46.172;-1.158;2022-09-25T13:36:56;21.30;99.90
58566;DHT22;47788;46.172;-1.158;2022-09-25T13:44:50;20.30;99.90
58566;DHT22;47788;46.172;-1.158;2022-09-25T13:58:22;18.90;99.90
58566;DHT22;47788;46.172;-1.158;2022-09-25T14:06:21;18.60;99.90
58566;DHT22;47788;46.172;-1.158;2022-09-25T14:08:48;18.60;99.90
58566;DHT22;47788;46.172;-1.158;2022-09-25T14:11:17;18.70;99.90
58566;DHT22;47788;46.172;-1.158;2022-09-25T14:13:46;18.80;99.90
58566;DHT22;47788;46.172;-1.158;2022-09-25T14:16:33;19.00;99.90
58566;DHT22;47788;46.172;-1.158;2022-09-25T14:19:01;19.10;99.90
58566;DHT22;47788;46.172;-1.158;2022-09-25T14:21:28;19.20;99.90
58566;DHT22;47788;46.172;-1.158;2022-09-25T14:23:56;18.90;99.90
58566;DHT22;47788;46.172;-1.158;2022-09-25T14:26:43;18.80;99.90
58566;DHT22;47788;46.172;-1.158;2022-09-25T14:29:22;18.80;99.90
58566;DHT22;47788;46.172;-1.158;2022-09-25T14:39:47;19.00;99.90
58566;DHT22;47788;46.172;-1.158;2022-09-25T14:42:25;19.30;99.90
58566;DHT22;47788;46.172;-1.158;2022-09-25T14:45:25;19.60;99.90
58566;DHT22;47788;46.172;-1.158;2022-09-25T14:47:57;20.10;99.90
58566;DHT22;47788;46.172;-1.158;2022-09-25T14:50:32;21.00;99.90
58566;DHT22;47788;46.172;-1.158;2022-09-25T14:53:04;22.90;99.90
58566;DHT22;47788;46.172;-1.158;2022-09-25T14:55:38;25.20;99.90
58566;DHT22;47788;46.172;-1.158;2022-09-25T14:58:09;27.70;98.60
58566;DHT22;47788;46.172;-1.158;2022-09-25T15:00:48;29.70;95.50
58566;DHT22;47788;46.172;-1.158;2022-09-25T15:03:16;31.20;92.90
58566;DHT22;47788;46.172;-1.158;2022-09-25T15:05:49;30.90;92.60
58566;DHT22;47788;46.172;-1.158;2022-09-25T15:11:16;28.40;93.50
58566;DHT22;47788;46.172;-1.158;2022-09-25T15:13:43;28.30;93.90
58566;DHT22;47788;46.172;-1.158;2022-09-25T15:16:20;29.70;93.70
58566;DHT22;47788;46.172;-1.158;2022-09-25T15:19:21;32.00;91.80
58566;DHT22;47788;46.172;-1.158;2022-09-25T15:21:50;34.00;89.20
58566;DHT22;47788;46.172;-1.158;2022-09-25T15:24:19;35.00;87.00
58566;DHT22;47788;46.172;-1.158;2022-09-25T15:26:51;35.70;84.80
58566;DHT22;47788;46.172;-1.158;2022-09-25T15:29:21;36.90;80.80
58566;DHT22;47788;46.172;-1.158;2022-09-25T15:31:48;37.70;80.80
58566;DHT22;47788;46.172;-1.158;2022-09-25T15:34:26;38.30;78.60
58566;DHT22;47788;46.172;-1.158;2022-09-25T15:36:52;38.30;76.90
58566;DHT22;47788;46.172;-1.158;2022-09-25T15:39:24;38.50;77.30
58566;DHT22;47788;46.172;-1.158;2022-09-25T15:41:50;38.50;75.30
58566;DHT22;47788;46.172;-1.158;2022-09-25T15:44:23;39.30;74.20
58566;DHT22;47788;46.172;-1.158;2022-09-25T15:46:58;38.90;74.30
58566;DHT22;47788;46.172;-1.158;2022-09-25T15:49:42;37.30;74.10
58566;DHT22;47788;46.172;-1.158;2022-09-25T15:52:34;34.10;75.90
58566;DHT22;47788;46.172;-1.158;2022-09-25T15:55:11;31.80;79.40
58566;DHT22;47788;46.172;-1.158;2022-09-25T15:57:39;30.30;83.60
58566;DHT22;47788;46.172;-1.158;2022-09-25T16:00:08;29.00;84.10
58566;DHT22;47788;46.172;-1.158;2022-09-25T16:03:09;27.60;86.40
58566;DHT22;47788;46.172;-1.158;2022-09-25T16:05:57;25.90;90.90
58566;DHT22;47788;46.172;-1.158;2022-09-25T16:08:44;24.60;91.70
58566;DHT22;47788;46.172;-1.158;2022-09-25T16:11:22;23.40;93.40
58566;DHT22;47788;46.172;-1.158;2022-09-25T16:13:52;22.60;95.30
58566;DHT22;47788;46.172;-1.158;2022-09-25T16:16:23;22.20;97.00
58566;DHT22;47788;46.172;-1.158;2022-09-25T16:18:50;21.80;96.60
58566;DHT22;47788;46.172;-1.158;2022-09-25T16:21:23;21.50;97.30
58566;DHT22;47788;46.172;-1.158;2022-09-25T16:24:11;21.40;97.50
58566;DHT22;47788;46.172;-1.158;2022-09-25T16:26:43;21.20;98.10
58566;DHT22;47788;46.172;-1.158;2022-09-25T16:31:37;21.00;97.80
58566;DHT22;47788;46.172;-1.158;2022-09-25T16:34:04;20.90;98.10
58566;DHT22;47788;46.172;-1.158;2022-09-25T16:36:40;20.80;99.70
58566;DHT22;47788;46.172;-1.158;2022-09-25T16:41:33;20.40;99.90
58566;DHT22;47788;46.172;-1.158;2022-09-25T16:44:42;20.40;99.90
58566;DHT22;47788;46.172;-1.158;2022-09-25T16:47:19;20.30;99.90
58566;DHT22;47788;46.172;-1.158;2022-09-25T16:49:46;20.20;99.90
58566;DHT22;47788;46.172;-1.158;2022-09-25T16:52:21;20.30;99.90
58566;DHT22;47788;46.172;-1.158;2022-09-25T16:54:50;20.30;99.90
58566;DHT22;47788;46.172;-1.158;2022-09-25T16:57:23;20.30;99.90
58566;DHT22;47788;46.172;-1.158;2022-09-25T16:59:53;20.20;99.90
58566;DHT22;47788;46.172;-1.158;2022-09-25T17:04:58;20.00;99.90
58566;DHT22;47788;46.172;-1.158;2022-09-25T17:07:24;19.90;99.90
58566;DHT22;47788;46.172;-1.158;2022-09-25T17:09:51;19.80;99.90
58566;DHT22;47788;46.172;-1.158;2022-09-25T17:12:21;19.60;99.90
58566;DHT22;47788;46.172;-1.158;2022-09-25T17:14:48;19.60;99.90
58566;DHT22;47788;46.172;-1.158;2022-09-25T17:17:17;19.40;99.90
58566;DHT22;47788;46.172;-1.158;2022-09-25T17:19:43;19.30;99.90
58566;DHT22;47788;46.172;-1.158;2022-09-25T17:22:09;19.30;99.90
58566;DHT22;47788;46.172;-1.158;2022-09-25T17:24:34;19.10;99.90
58566;DHT22;47788;46.172;-1.158;2022-09-25T17:27:00;19.10;99.90
58566;DHT22;47788;46.172;-1.158;2022-09-25T17:29:26;19.00;99.90
58566;DHT22;47788;46.172;-1.158;2022-09-25T17:31:53;18.90;99.90
58566;DHT22;47788;46.172;-1.158;2022-09-25T17:34:22;18.80;99.90
58566;DHT22;47788;46.172;-1.158;2022-09-25T17:36:53;18.70;99.90
58566;DHT22;47788;46.172;-1.158;2022-09-25T17:39:19;18.70;99.90
58566;DHT22;47788;46.172;-1.158;2022-09-25T17:41:45;18.60;99.90
58566;DHT22;47788;46.172;-1.158;2022-09-25T17:44:20;18.60;99.90
58566;DHT22;47788;46.172;-1.158;2022-09-25T17:46:50;18.50;99.90
58566;DHT22;47788;46.172;-1.158;2022-09-25T17:49:16;18.40;99.90
58566;DHT22;47788;46.172;-1.158;2022-09-25T17:51:42;18.20;99.90
58566;DHT22;47788;46.172;-1.158;2022-09-25T17:54:08;18.10;99.90
58566;DHT22;47788;46.172;-1.158;2022-09-25T17:56:36;18.00;99.90
58566;DHT22;47788;46.172;-1.158;2022-09-25T17:59:03;17.90;99.90
58566;DHT22;47788;46.172;-1.158;2022-09-25T18:01:31;17.80;99.90
58566;DHT22;47788;46.172;-1.158;2022-09-25T18:03:59;17.70;99.90
58566;DHT22;47788;46.172;-1.158;2022-09-25T18:06:27;17.60;99.90
58566;DHT22;47788;46.172;-1.158;2022-09-25T18:08:53;17.50;99.90
58566;DHT22;47788;46.172;-1.158;2022-09-25T18:11:21;17.40;99.90
58566;DHT22;47788;46.172;-1.158;2022-09-25T18:13:53;17.40;99.90
58566;DHT22;47788;46.172;-1.158;2022-09-25T18:16:26;17.30;99.90
58566;DHT22;47788;46.172;-1.158;2022-09-25T18:18:52;17.30;99.90
58566;DHT22;47788;46.172;-1.158;2022-09-25T18:21:36;17.20;99.90
58566;DHT22;47788;46.172;-1.158;2022-09-25T18:24:20;17.20;99.90
58566;DHT22;47788;46.172;-1.158;2022-09-25T18:26:46;17.20;99.90
58566;DHT22;47788;46.172;-1.158;2022-09-25T18:29:16;17.20;99.90
58566;DHT22;47788;46.172;-1.158;2022-09-25T18:31:43;17.20;99.90
58566;DHT22;47788;46.172;-1.158;2022-09-25T18:34:09;17.20;99.90
58566;DHT22;47788;46.172;-1.158;2022-09-25T18:36:35;17.10;99.90
58566;DHT22;47788;46.172;-1.158;2022-09-25T18:39:00;17.10;99.90
58566;DHT22;47788;46.172;-1.158;2022-09-25T18:41:26;17.10;99.90